Time;durP1;ratioP1;P1;durP2;ratioP2;P2;SDS_P1;SDS_P2;PMS_P1;PMS_P2;Temp;Humidity;BMP_temperature;BMP_pressure;BME280_temperature;BME280_humidity;BME280_pressure;Samples;Min_cycle;Max_cycle;Signal;HPM_P1;HPM_P2
2021/12/09 00:00:11;;;;;;;16.80;7.18;;;;;;;2.06;97.74;100107.84;6218410;23;20087;-62
2021/12/09 00:02:37;;;;;;;14.93;7.15;;;;;;;2.00;97.55;100118.97;6218406;23;20008;-62
2021/12/09 00:05:03;;;;;;;19.40;6.82;;;;;;;2.03;97.68;100118.13;6218205;23;20008;-62
2021/12/09 00:07:28;;;;;;;13.98;7.43;;;;;;;2.03;97.98;100111.25;6218477;23;20046;-62
2021/12/09 00:09:54;;;;;;;16.67;7.00;;;;;;;1.98;97.16;100104.31;6218289;23;20413;-62
2021/12/09 00:12:21;;;;;;;12.80;6.50;;;;;;;2.05;97.53;100112.16;6218494;23;20011;-62
2021/12/09 00:14:47;;;;;;;16.90;7.05;;;;;;;1.95;98.17;100119.75;6217813;23;20004;-62
2021/12/09 00:17:12;;;;;;;13.15;6.50;;;;;;;2.00;97.92;100120.69;6218666;23;20008;-62
2021/12/09 00:19:38;;;;;;;14.70;7.28;;;;;;;1.97;97.78;100123.22;6218367;23;20008;-62
2021/12/09 00:22:05;;;;;;;17.00;7.30;;;;;;;1.92;98.32;100119.72;6218276;23;20038;-62
2021/12/09 00:24:30;;;;;;;19.23;7.68;;;;;;;2.01;97.33;100125.00;6218237;23;20012;-62
2021/12/09 00:26:56;;;;;;;15.07;7.10;;;;;;;1.88;98.21;100124.03;6217626;23;20050;-63
2021/12/09 00:29:22;;;;;;;16.70;6.75;;;;;;;1.88;98.25;100125.72;6217898;23;20017;-62
2021/12/09 00:31:50;;;;;;;13.27;6.82;;;;;;;1.82;98.56;100126.53;6218242;23;20041;-62
2021/12/09 00:34:16;;;;;;;14.40;6.95;;;;;;;1.81;98.14;100117.06;6218229;23;20004;-62
2021/12/09 00:36:55;;;;;;;16.48;7.07;;;;;;;1.78;98.96;100126.47;6217807;23;20306;-62
2021/12/09 00:39:20;;;;;;;18.35;6.97;;;;;;;1.74;98.78;100129.00;6217823;23;20016;-62
2021/12/09 00:41:46;;;;;;;16.58;7.28;;;;;;;1.73;99.16;100124.69;6217778;23;20022;-62
2021/12/09 00:44:11;;;;;;;15.20;6.80;;;;;;;1.81;98.57;100131.66;6218019;23;20004;-62
2021/12/09 00:46:38;;;;;;;17.50;6.78;;;;;;;1.75;98.93;100124.72;6218236;23;20009;-62
2021/12/09 00:49:03;;;;;;;17.92;7.30;;;;;;;1.79;98.86;100123.91;6217993;23;20008;-62
2021/12/09 00:51:29;;;;;;;15.15;7.20;;;;;;;1.77;99.31;100125.59;6217706;23;20088;-62
2021/12/09 00:53:54;;;;;;;14.38;7.10;;;;;;;1.82;98.84;100117.91;6218023;23;20009;-62
2021/12/09 00:56:19;;;;;;;15.65;6.90;;;;;;;1.85;98.98;100128.28;6217572;23;20111;-63
2021/12/09 00:58:45;;;;;;;15.32;7.13;;;;;;;1.88;99.44;100128.31;6218241;23;20111;-62
2021/12/09 01:01:11;;;;;;;12.32;6.78;;;;;;;1.90;98.58;100117.16;6218059;23;20004;-62
2021/12/09 01:03:39;;;;;;;15.55;7.53;;;;;;;1.90;98.95;100127.47;6217793;23;20008;-62
2021/12/09 01:06:04;;;;;;;16.15;6.82;;;;;;;2.02;98.15;100131.88;6217790;23;20069;-62
2021/12/09 01:08:30;;;;;;;15.02;6.85;;;;;;;1.95;98.33;100132.66;6217821;23;20084;-62
2021/12/09 01:10:56;;;;;;;13.63;7.30;;;;;;;1.93;97.80;100127.47;6217450;23;20008;-62
2021/12/09 01:13:22;;;;;;;16.25;6.65;;;;;;;1.88;97.97;100134.34;6217656;23;20301;-61
2021/12/09 01:15:47;;;;;;;16.08;7.10;;;;;;;1.84;98.71;100136.88;6217165;23;20005;-62
2021/12/09 01:18:13;;;;;;;13.38;7.35;;;;;;;1.78;98.63;100135.06;6217580;23;20032;-62
2021/12/09 01:20:38;;;;;;;17.70;7.38;;;;;;;1.86;98.27;100140.31;6217622;23;20011;-62
2021/12/09 01:23:04;;;;;;;17.15;7.05;;;;;;;1.79;98.60;100135.94;6217566;23;20310;-62
2021/12/09 01:25:37;;;;;;;14.77;7.28;;;;;;;1.70;99.10;100140.16;6217605;23;20039;-62
2021/12/09 01:28:06;;;;;;;13.57;7.88;;;;;;;1.72;98.49;100135.91;6217318;23;20083;-62
2021/12/09 01:30:32;;;;;;;14.57;7.13;;;;;;;1.73;98.69;100139.34;6217767;23;20080;-62
2021/12/09 01:32:58;;;;;;;17.42;7.40;;;;;;;1.77;98.68;100140.22;6217739;23;20018;-62
2021/12/09 01:35:36;;;;;;;16.48;7.53;;;;;;;1.73;99.07;100141.91;6216162;23;20071;-62
2021/12/09 01:38:10;;;;;;;16.73;7.60;;;;;;;1.62;98.99;100157.25;6217836;23;20071;-62
2021/12/09 01:40:37;;;;;;;15.77;7.32;;;;;;;1.59;99.44;100144.31;6216889;23;20024;-62
2021/12/09 01:43:03;;;;;;;13.95;7.57;;;;;;;1.61;98.90;100145.19;6217906;23;20023;-62
2021/12/09 01:45:28;;;;;;;18.00;7.78;;;;;;;1.55;99.65;100150.31;6217686;23;20004;-62
2021/12/09 01:47:54;;;;;;;15.75;7.60;;;;;;;1.49;99.79;100139.91;6217314;23;20429;-62
2021/12/09 01:50:21;;;;;;;15.52;7.65;;;;;;;1.48;99.99;100148.50;6216312;23;20012;-62
2021/12/09 01:52:46;;;;;;;14.90;7.40;;;;;;;1.43;99.71;100138.97;6217382;23;20330;-62
2021/12/09 01:55:14;;;;;;;13.98;7.38;;;;;;;1.41;100.00;100131.22;6217603;23;20004;-62
2021/12/09 01:57:40;;;;;;;17.83;7.63;;;;;;;1.43;100.00;100131.22;6217786;23;20008;-62
2021/12/09 02:00:11;;;;;;;15.30;7.32;;;;;;;1.41;100.00;100133.78;6217491;23;20391;-62
2021/12/09 02:02:38;;;;;;;12.60;6.97;;;;;;;1.46;100.00;100139.88;6217211;23;20409;-62
2021/12/09 02:05:04;;;;;;;13.95;6.88;;;;;;;1.45;99.87;100138.13;6217246;23;20306;-63
2021/12/09 02:07:29;;;;;;;13.73;6.95;;;;;;;1.43;99.90;100129.53;6217603;23;20008;-62
2021/12/09 02:09:55;;;;;;;14.40;7.43;;;;;;;1.35;99.76;100137.19;6217381;23;20263;-62
2021/12/09 02:12:20;;;;;;;13.10;6.63;;;;;;;1.35;99.83;100132.03;6217434;23;20042;-62
2021/12/09 02:14:47;;;;;;;14.00;6.90;;;;;;;1.39;100.00;100132.91;6217524;23;20009;-62
2021/12/09 02:17:12;;;;;;;13.18;7.68;;;;;;;1.38;100.00;100131.19;6217113;23;20497;-62
2021/12/09 02:19:42;;;;;;;17.00;7.30;;;;;;;1.37;100.00;100132.03;6217399;23;20028;-63
2021/12/09 02:22:10;;;;;;;16.00;7.35;;;;;;;1.39;99.76;100132.91;6217319;23;20357;-62
2021/12/09 02:24:37;;;;;;;16.63;7.43;;;;;;;1.35;100.00;100126.88;6217513;23;20012;-62
2021/12/09 02:27:02;;;;;;;13.98;7.20;;;;;;;1.37;99.98;100130.34;6217470;23;20004;-62
2021/12/09 02:29:28;;;;;;;15.15;7.25;;;;;;;1.38;99.84;100121.75;6217386;23;20079;-62
2021/12/09 02:31:56;;;;;;;17.63;7.60;;;;;;;1.35;100.00;100126.00;6216998;23;20314;-62
2021/12/09 02:34:22;;;;;;;17.13;6.75;;;;;;;1.34;100.00;100129.44;6216762;23;20365;-62
2021/12/09 02:36:50;;;;;;;18.73;7.03;;;;;;;1.36;99.88;100126.03;6216978;23;20005;-62
2021/12/09 02:39:15;;;;;;;16.65;7.47;;;;;;;1.26;100.00;100123.28;6217214;23;20013;-62
2021/12/09 02:41:42;;;;;;;13.68;6.88;;;;;;;1.35;100.00;100124.28;6217238;23;20036;-62
2021/12/09 02:44:12;;;;;;;19.83;6.88;;;;;;;1.27;100.00;100127.59;6217349;23;20070;-62
2021/12/09 02:46:38;;;;;;;21.98;7.85;;;;;;;1.30;100.00;100132.81;6217342;23;20059;-62
2021/12/09 02:49:15;;;;;;;14.32;6.88;;;;;;;1.34;100.00;100129.44;6217270;23;20018;-62
2021/12/09 02:51:42;;;;;;;15.88;7.47;;;;;;;1.36;100.00;100132.88;6219325;23;20004;-62
2021/12/09 02:54:10;;;;;;;15.88;6.93;;;;;;;1.33;100.00;100133.72;6219202;23;20019;-62
2021/12/09 02:56:36;;;;;;;14.85;7.13;;;;;;;1.20;100.00;100112.94;6219185;23;20396;-62
2021/12/09 02:59:02;;;;;;;19.75;7.10;;;;;;;1.28;100.00;100126.75;6219233;23;20009;-62
2021/12/09 03:01:33;;;;;;;19.33;7.43;;;;;;;1.28;99.98;100140.50;6218453;23;20076;-62
2021/12/09 03:04:00;;;;;;;14.48;7.28;;;;;;;1.26;100.00;100138.75;6218958;23;20058;-62
2021/12/09 03:06:38;;;;;;;13.23;6.47;;;;;;;1.29;100.00;100141.38;6219072;23;20151;-62
2021/12/09 03:09:08;;;;;;;15.00;6.93;;;;;;;1.23;100.00;100141.28;6219328;23;20009;-62
2021/12/09 03:11:35;;;;;;;16.52;6.50;;;;;;;1.26;100.00;100144.78;6218778;23;20032;-62
2021/12/09 03:14:01;;;;;;;12.35;6.07;;;;;;;1.24;100.00;100141.31;6218768;23;20008;-63
2021/12/09 03:16:27;;;;;;;20.58;6.15;;;;;;;1.23;100.00;100149.03;6218530;23;20008;-62
2021/12/09 03:18:56;;;;;;;17.35;6.88;;;;;;;1.21;100.00;100148.16;6218688;23;20005;-62
2021/12/09 03:21:42;;;;;;;14.82;6.53;;;;;;;1.24;100.00;100151.63;6218933;23;20015;-62
2021/12/09 03:24:11;;;;;;;17.80;6.10;;;;;;;1.23;100.00;100151.59;6219192;23;20028;-62
2021/12/09 03:26:41;;;;;;;12.02;5.63;;;;;;;1.23;100.00;100160.19;6218839;23;20302;-62
2021/12/09 03:29:11;;;;;;;12.07;5.95;;;;;;;1.16;100.00;100167.84;6218879;23;20019;-62
2021/12/09 03:31:38;;;;;;;15.20;6.20;;;;;;;1.15;100.00;100164.41;6218723;23;20023;-62
2021/12/09 03:34:04;;;;;;;12.48;5.65;;;;;;;1.21;100.00;100161.88;6218898;23;20356;-62
2021/12/09 03:36:30;;;;;;;14.70;6.07;;;;;;;1.27;100.00;100161.97;6218395;23;20009;-62
2021/12/09 03:38:58;;;;;;;16.65;6.00;;;;;;;1.27;100.00;100163.69;6218372;23;20082;-64
2021/12/09 03:41:23;;;;;;;13.32;5.75;;;;;;;1.23;100.00;100151.59;6218234;23;20008;-62
2021/12/09 03:43:48;;;;;;;12.18;5.70;;;;;;;1.23;100.00;100162.78;6218794;23;20005;-61
2021/12/09 03:46:14;;;;;;;15.45;5.60;;;;;;;1.28;100.00;100170.56;6218224;23;20302;-59
2021/12/09 03:48:40;;;;;;;11.77;5.35;;;;;;;1.25;100.00;100157.63;6218580;23;20066;-62
2021/12/09 03:51:05;;;;;;;12.27;5.40;;;;;;;1.21;100.00;100171.34;6218543;23;20009;-62
2021/12/09 03:53:30;;;;;;;9.05;5.20;;;;;;;1.17;100.00;100179.88;6218285;23;20004;-62
2021/12/09 03:55:56;;;;;;;12.65;4.63;;;;;;;1.15;100.00;100172.13;6218492;23;20013;-62
2021/12/09 03:58:21;;;;;;;9.85;4.90;;;;;;;1.09;100.00;100181.47;6218466;23;20019;-61
2021/12/09 04:00:48;;;;;;;14.20;5.65;;;;;;;1.10;100.00;100180.63;6218534;23;20000;-61
2021/12/09 04:03:16;;;;;;;12.50;5.25;;;;;;;1.15;100.00;100185.00;6218991;23;20047;-61
2021/12/09 04:05:41;;;;;;;10.85;5.20;;;;;;;1.08;100.00;100178.03;6218501;23;20335;-61
2021/12/09 04:08:07;;;;;;;11.55;5.03;;;;;;;1.02;100.00;100172.81;6218747;23;20071;-61
2021/12/09 04:10:33;;;;;;;16.25;5.30;;;;;;;1.00;100.00;100162.47;6218035;23;20039;-61
2021/12/09 04:12:59;;;;;;;12.27;5.22;;;;;;;1.00;100.00;100164.19;6219303;23;20032;-61
2021/12/09 04:15:24;;;;;;;14.20;4.72;;;;;;;1.05;100.00;100167.69;6218816;23;20047;-61
2021/12/09 04:17:50;;;;;;;14.40;5.10;;;;;;;1.07;100.00;100166.00;6218305;23;20005;-61
2021/12/09 04:20:16;;;;;;;13.45;5.53;;;;;;;1.07;100.00;100170.28;6218385;23;20036;-61
2021/12/09 04:22:48;;;;;;;9.90;4.70;;;;;;;1.04;100.00;100173.66;6217898;23;20005;-61
2021/12/09 04:25:14;;;;;;;13.23;5.20;;;;;;;0.98;100.00;100176.19;6217831;23;20283;-61
2021/12/09 04:27:39;;;;;;;14.13;4.97;;;;;;;0.97;100.00;100175.31;6218314;23;20020;-61
2021/12/09 04:30:05;;;;;;;12.20;5.22;;;;;;;1.07;100.00;100175.44;6218064;23;20004;-61
2021/12/09 04:32:30;;;;;;;12.40;5.03;;;;;;;1.05;100.00;100181.41;6217825;23;20040;-61
2021/12/09 04:34:57;;;;;;;14.23;5.05;;;;;;;1.12;100.00;100189.25;6218179;23;20035;-61
2021/12/09 04:37:23;;;;;;;12.98;4.90;;;;;;;1.06;100.00;100190.03;6217670;23;20008;-62
2021/12/09 04:39:48;;;;;;;11.20;4.97;;;;;;;1.04;100.00;100187.41;6218271;23;20012;-61
2021/12/09 04:42:13;;;;;;;14.63;4.85;;;;;;;1.01;100.00;100195.13;6217684;23;20012;-61
2021/12/09 04:44:39;;;;;;;10.98;4.40;;;;;;;1.00;100.00;100190.81;6218358;23;20004;-61
2021/12/09 04:47:04;;;;;;;14.93;5.13;;;;;;;0.92;100.00;100197.56;6217639;23;20406;-61
2021/12/09 04:49:30;;;;;;;11.82;4.55;;;;;;;0.95;100.00;100199.31;6217579;23;20005;-61
2021/12/09 04:51:57;;;;;;;9.85;4.70;;;;;;;0.96;100.00;100193.31;6217610;23;20310;-62
2021/12/09 04:54:23;;;;;;;18.70;5.00;;;;;;;0.99;100.00;100194.25;6217836;23;20036;-61
2021/12/09 04:56:48;;;;;;;13.65;5.20;;;;;;;1.01;100.00;100189.97;6218389;23;20001;-61
2021/12/09 04:59:13;;;;;;;14.35;4.80;;;;;;;1.00;100.00;100180.50;6218328;23;20007;-61
2021/12/09 05:01:41;;;;;;;16.40;5.13;;;;;;;1.02;100.00;100194.28;6217984;23;20280;-61
2021/12/09 05:04:06;;;;;;;10.18;4.75;;;;;;;1.07;100.00;100196.91;6217595;23;20440;-61
2021/12/09 05:06:31;;;;;;;15.32;5.07;;;;;;;1.08;100.00;100195.19;6217786;23;20095;-62
2021/12/09 05:09:05;;;;;;;13.07;4.78;;;;;;;1.07;100.00;100196.03;6217846;23;20012;-60
2021/12/09 05:11:48;;;;;;;16.13;5.03;;;;;;;1.02;100.00;100189.13;6217676;23;20042;-61
2021/12/09 05:14:15;;;;;;;13.13;5.13;;;;;;;1.01;100.00;100200.28;6217993;23;20298;-61
2021/12/09 05:16:43;;;;;;;15.23;4.65;;;;;;;1.04;100.00;100207.16;6217951;23;20077;-61
2021/12/09 05:19:09;;;;;;;13.65;4.95;;;;;;;1.00;100.00;100205.41;6217672;23;20019;-61
2021/12/09 05:21:38;;;;;;;12.43;5.10;;;;;;;0.99;100.00;100209.69;6217814;23;20001;-61
2021/12/09 05:24:12;;;;;;;13.73;5.03;;;;;;;0.95;100.00;100202.75;6218101;23;20088;-61
2021/12/09 05:26:44;;;;;;;12.07;4.40;;;;;;;1.02;100.00;100203.72;6217770;23;20066;-61
2021/12/09 05:29:10;;;;;;;9.07;4.80;;;;;;;1.04;100.00;100215.75;6217783;23;20087;-62
2021/12/09 05:34:20;;;;;;;15.02;5.45;;;;;;;1.00;100.00;100200.25;6217405;23;20019;-62
2021/12/09 05:36:46;;;;;;;11.32;5.05;;;;;;;0.93;100.00;100198.41;6217328;23;20020;-62
2021/12/09 05:39:12;;;;;;;12.90;4.70;;;;;;;0.90;100.00;100194.09;6217103;23;20390;-62
2021/12/09 05:41:39;;;;;;;12.93;5.20;;;;;;;0.98;100.00;100207.97;6216511;23;20016;-62
2021/12/09 05:44:05;;;;;;;11.02;5.03;;;;;;;0.91;100.00;100212.97;6216447;23;20039;-62
2021/12/09 05:46:34;;;;;;;12.55;4.97;;;;;;;0.98;100.00;100213.09;6216440;23;20047;-62
2021/12/09 05:48:59;;;;;;;8.82;4.78;;;;;;;1.05;100.00;100214.06;6216517;23;20400;-61
2021/12/09 05:51:26;;;;;;;17.02;5.20;;;;;;;0.92;100.00;100220.72;6216389;23;20012;-61
2021/12/09 05:53:52;;;;;;;15.50;5.07;;;;;;;0.90;100.00;100225.00;6216027;23;20016;-62
2021/12/09 05:56:18;;;;;;;11.52;4.97;;;;;;;1.01;100.00;100218.31;6216528;23;20005;-61
2021/12/09 05:58:44;;;;;;;15.00;5.10;;;;;;;0.89;100.00;100223.25;6216416;23;20004;-61
2021/12/09 06:01:09;;;;;;;17.50;6.18;;;;;;;0.90;100.00;100230.16;6215929;23;20386;-61
2021/12/09 06:03:34;;;;;;;15.35;5.30;;;;;;;0.93;100.00;100226.75;6216665;23;20096;-61
2021/12/09 06:06:00;;;;;;;13.70;5.38;;;;;;;0.90;100.00;100225.00;6216156;23;20283;-61
2021/12/09 06:08:26;;;;;;;14.80;5.00;;;;;;;0.91;100.00;100216.44;6216231;23;20001;-62
2021/12/09 06:10:53;;;;;;;11.80;5.05;;;;;;;0.93;100.00;100231.91;6216175;23;20005;-61
2021/12/09 06:13:18;;;;;;;13.32;5.40;;;;;;;0.92;100.00;100217.28;6216220;23;20337;-64
2021/12/09 06:15:44;;;;;;;11.70;5.68;;;;;;;0.88;100.00;100224.09;6216498;23;20004;-61
2021/12/09 06:18:09;;;;;;;17.58;5.97;;;;;;;0.95;100.00;100222.50;6215234;23;20024;-64
2021/12/09 06:20:35;;;;;;;18.98;5.57;;;;;;;0.94;100.00;100224.22;6215380;23;20317;-64
2021/12/09 06:23:00;;;;;;;14.45;5.40;;;;;;;0.87;100.00;100224.06;6216096;23;20005;-64
2021/12/09 06:25:25;;;;;;;14.00;4.95;;;;;;;0.95;100.00;100215.63;6216687;23;20071;-65
2021/12/09 06:27:54;;;;;;;11.88;5.22;;;;;;;0.87;100.00;100214.63;6217502;23;20086;-65
2021/12/09 06:30:20;;;;;;;11.95;5.15;;;;;;;0.90;100.00;100219.84;6216977;23;20012;-65
2021/12/09 06:32:45;;;;;;;17.60;5.75;;;;;;;0.88;100.00;100216.38;6216883;23;20074;-64
2021/12/09 06:35:11;;;;;;;13.05;5.35;;;;;;;0.85;100.00;100220.63;6217228;23;20008;-64
2021/12/09 06:37:39;;;;;;;17.70;5.22;;;;;;;0.84;100.00;100227.50;6217212;23;20107;-64
2021/12/09 06:40:11;;;;;;;13.25;5.85;;;;;;;0.79;100.00;100221.41;6173445;23;1038441;-65
2021/12/09 06:42:36;;;;;;;12.97;5.87;;;;;;;0.84;100.00;100234.34;6218573;23;20028;-65
2021/12/09 06:45:03;;;;;;;13.65;5.85;;;;;;;0.83;100.00;100228.34;6219152;23;20228;-62
2021/12/09 06:47:28;;;;;;;15.05;5.90;;;;;;;0.88;100.00;100241.25;6219181;23;20134;-62
2021/12/09 06:49:53;;;;;;;16.40;5.65;;;;;;;0.84;100.00;100234.34;6218693;23;20091;-61
2021/12/09 06:52:19;;;;;;;13.23;5.82;;;;;;;0.83;100.00;100238.63;6219114;23;20004;-62
2021/12/09 06:54:44;;;;;;;18.05;6.03;;;;;;;0.85;100.00;100233.50;6219115;23;20000;-61
2021/12/09 06:57:10;;;;;;;14.60;5.65;;;;;;;0.93;100.00;100240.50;6218922;23;20302;-64
2021/12/09 06:59:35;;;;;;;13.90;5.60;;;;;;;0.88;100.00;100236.09;6218998;23;20310;-61
2021/12/09 07:02:01;;;;;;;15.30;5.57;;;;;;;0.79;100.00;100239.41;6219120;23;20398;-61
2021/12/09 07:04:26;;;;;;;14.52;5.43;;;;;;;0.84;100.00;100244.66;6219064;23;20091;-63
2021/12/09 07:06:52;;;;;;;16.48;5.80;;;;;;;0.83;100.00;100245.50;6218608;23;20011;-61
2021/12/09 07:09:17;;;;;;;13.60;5.50;;;;;;;0.73;100.00;100244.47;6219008;23;20009;-61
2021/12/09 07:11:48;;;;;;;13.75;5.57;;;;;;;0.86;100.00;100254.16;6218686;23;20098;-62
2021/12/09 07:14:13;;;;;;;12.85;5.93;;;;;;;0.83;100.00;100254.09;6218976;23;20293;-61
2021/12/09 07:16:39;;;;;;;16.90;5.40;;;;;;;0.83;100.00;100251.50;6218790;23;20007;-61
2021/12/09 07:19:04;;;;;;;13.73;6.15;;;;;;;0.86;100.00;100243.84;6219117;23;20043;-61
2021/12/09 07:21:30;;;;;;;16.38;5.70;;;;;;;0.86;100.00;100251.56;6218917;23;20015;-61
2021/12/09 07:23:55;;;;;;;11.10;5.53;;;;;;;0.83;100.00;100248.94;6218813;23;20036;-61
2021/12/09 07:26:20;;;;;;;12.27;6.15;;;;;;;0.85;100.00;100252.41;6219281;23;20001;-61
2021/12/09 07:28:46;;;;;;;11.77;5.60;;;;;;;0.88;100.00;100241.25;6218782;23;20024;-61
2021/12/09 07:31:11;;;;;;;16.98;5.70;;;;;;;0.82;100.00;100242.06;6218154;23;20036;-60
2021/12/09 07:33:36;;;;;;;18.25;5.80;;;;;;;0.88;100.00;100249.84;6217232;23;20004;-61
2021/12/09 07:36:02;;;;;;;15.25;5.75;;;;;;;0.89;100.00;100249.00;6218328;23;20084;-60
2021/12/09 07:38:28;;;;;;;20.00;6.57;;;;;;;0.92;100.00;100254.22;6218649;23;20032;-61
2021/12/09 07:40:53;;;;;;;13.23;6.20;;;;;;;0.88;100.00;100247.28;6216859;23;20294;-62
2021/12/09 07:43:18;;;;;;;13.55;6.07;;;;;;;0.94;100.00;100255.13;6218473;23;20013;-61
2021/12/09 07:45:44;;;;;;;14.68;5.90;;;;;;;0.87;100.00;100261.00;6217733;23;20004;-62
2021/12/09 07:48:10;;;;;;;16.05;6.43;;;;;;;0.90;100.00;100266.19;6218316;23;20016;-61
2021/12/09 07:50:35;;;;;;;12.13;5.57;;;;;;;1.04;100.00;100258.69;6218012;23;20049;-60
2021/12/09 07:53:01;;;;;;;14.65;5.53;;;;;;;0.95;100.00;100258.56;6218348;23;20019;-60
2021/12/09 07:55:27;;;;;;;19.02;6.53;;;;;;;1.02;100.00;100255.25;6217791;23;20054;-60
2021/12/09 07:57:53;;;;;;;18.98;6.40;;;;;;;0.96;100.00;100258.59;6217700;23;20087;-61
2021/12/09 08:00:21;;;;;;;13.45;5.75;;;;;;;1.04;100.00;100261.25;6218125;23;20043;-60
2021/12/09 08:02:48;;;;;;;15.32;5.70;;;;;;;1.00;100.00;100262.09;6218676;23;20008;-60
2021/12/09 08:05:16;;;;;;;15.07;6.25;;;;;;;0.96;100.00;100260.28;6218100;23;20004;-61
2021/12/09 08:07:42;;;;;;;15.48;6.10;;;;;;;1.03;100.00;100267.28;6218225;23;20008;-61
2021/12/09 08:10:13;;;;;;;20.23;6.13;;;;;;;1.12;100.00;100269.13;6217974;23;20366;-61
2021/12/09 08:12:39;;;;;;;14.68;6.10;;;;;;;1.08;100.00;100275.06;6218174;23;20008;-61
2021/12/09 08:15:07;;;;;;;15.57;6.05;;;;;;;1.16;100.00;100284.66;6218149;23;20008;-61
2021/12/09 08:20:00;;;;;;;17.70;6.45;;;;;;;1.33;100.00;100280.63;6227694;23;20013;-61
2021/12/09 08:22:26;;;;;;;12.30;5.72;;;;;;;1.44;100.00;100290.22;6218037;23;20358;-62
2021/12/09 08:24:55;;;;;;;19.25;5.93;;;;;;;1.63;99.91;100284.47;6217684;23;20027;-57
2021/12/09 08:27:21;;;;;;;12.82;6.18;;;;;;;1.69;99.89;100282.00;6217665;23;20457;-62
2021/12/09 08:29:46;;;;;;;12.85;6.03;;;;;;;1.71;99.52;100276.00;6217843;23;20058;-61
2021/12/09 08:32:11;;;;;;;20.38;6.72;;;;;;;1.80;98.80;100277.81;6217952;23;20004;-62
2021/12/09 08:34:37;;;;;;;13.20;5.90;;;;;;;1.82;99.38;100281.28;6217980;23;20059;-62
2021/12/09 08:37:02;;;;;;;13.43;5.72;;;;;;;1.88;98.69;100273.66;6217915;23;20310;-61
2021/12/09 08:39:27;;;;;;;16.60;5.78;;;;;;;1.88;99.33;100276.22;6217406;23;20016;-62
2021/12/09 08:41:53;;;;;;;16.52;6.13;;;;;;;1.96;98.79;100269.44;6217494;23;20004;-62
2021/12/09 08:44:18;;;;;;;14.90;5.30;;;;;;;2.01;98.13;100269.50;6217779;23;20004;-62
2021/12/09 08:46:44;;;;;;;17.08;6.32;;;;;;;2.00;98.73;100267.75;6217336;23;20011;-61
2021/12/09 08:49:11;;;;;;;11.88;5.72;;;;;;;2.04;98.23;100278.13;6217741;23;20008;-62
2021/12/09 08:51:37;;;;;;;14.00;6.35;;;;;;;2.01;98.40;100278.09;6217632;23;20103;-62
2021/12/09 08:54:04;;;;;;;12.88;5.68;;;;;;;2.09;97.91;100275.59;6216279;23;20008;-64
2021/12/09 08:56:29;;;;;;;13.35;6.10;;;;;;;2.16;97.50;100287.72;6217926;23;20015;-62
2021/12/09 08:58:55;;;;;;;12.63;6.20;;;;;;;2.09;98.49;100286.78;6217770;23;20004;-63
2021/12/09 09:01:20;;;;;;;17.83;5.95;;;;;;;2.17;97.90;100291.19;6217677;23;20465;-62
2021/12/09 09:03:45;;;;;;;11.25;5.63;;;;;;;2.20;97.97;100280.91;6216253;23;20436;-62
2021/12/09 09:06:11;;;;;;;15.80;6.60;;;;;;;2.04;98.25;100254.03;6217801;23;20009;-62
2021/12/09 09:08:37;;;;;;;12.93;5.93;;;;;;;2.21;98.56;100280.91;6217389;23;20004;-63
2021/12/09 09:11:02;;;;;;;14.35;6.50;;;;;;;2.26;97.93;100279.22;6217105;23;20012;-63
2021/12/09 09:13:28;;;;;;;13.45;6.18;;;;;;;2.32;97.92;100281.00;6217627;23;20020;-63
2021/12/09 09:15:53;;;;;;;14.65;5.97;;;;;;;2.34;98.38;100281.91;6217619;23;20009;-62
2021/12/09 09:18:19;;;;;;;12.07;6.43;;;;;;;2.48;97.30;100284.63;6217533;23;20083;-63
2021/12/09 09:20:47;;;;;;;16.63;6.78;;;;;;;2.48;96.94;100285.50;6217553;23;20349;-62
2021/12/09 09:23:16;;;;;;;13.90;6.30;;;;;;;2.48;97.54;100282.03;6216884;23;20015;-63
2021/12/09 09:25:42;;;;;;;17.70;5.93;;;;;;;2.57;96.70;100288.19;6216439;23;20013;-63
2021/12/09 09:28:10;;;;;;;16.73;6.38;;;;;;;2.53;98.29;100293.28;6216168;23;20005;-63
2021/12/09 09:30:39;;;;;;;15.45;6.63;;;;;;;2.59;97.61;100286.47;6217630;23;20008;-62
2021/12/09 09:33:11;;;;;;;19.33;7.20;;;;;;;2.56;98.32;100291.63;6217321;23;20004;-63
2021/12/09 09:35:38;;;;;;;13.90;6.63;;;;;;;2.62;97.54;100296.81;6216968;23;20433;-65
2021/12/09 09:38:05;;;;;;;17.13;7.50;;;;;;;2.60;97.32;100293.34;6217259;23;20008;-62
2021/12/09 09:40:39;;;;;;;20.48;7.45;;;;;;;2.69;98.04;100292.59;6217381;23;20066;-62
2021/12/09 09:43:14;;;;;;;15.65;6.55;;;;;;;2.75;96.89;100292.66;6217554;23;20016;-62
2021/12/09 09:45:39;;;;;;;16.25;6.35;;;;;;;2.74;97.35;100296.09;6217386;23;20009;-62
2021/12/09 09:48:13;;;;;;;13.57;6.97;;;;;;;2.89;96.74;100297.94;6217400;23;20448;-61
2021/12/09 09:50:40;;;;;;;15.98;7.20;;;;;;;2.79;96.71;100303.00;6217144;23;20004;-61
2021/12/09 09:53:09;;;;;;;16.02;6.72;;;;;;;2.82;97.03;100309.94;6217666;23;20005;-61
2021/12/09 09:55:34;;;;;;;13.82;7.00;;;;;;;2.80;97.09;100306.47;6217203;23;20433;-61
2021/12/09 09:57:59;;;;;;;14.98;6.97;;;;;;;2.73;97.32;100307.28;6217085;23;20004;-61
2021/12/09 10:00:25;;;;;;;16.48;7.35;;;;;;;2.72;97.38;100298.66;6216997;23;20088;-61
2021/12/09 10:02:54;;;;;;;21.52;7.90;;;;;;;2.90;97.27;100310.88;6217013;23;20015;-61
2021/12/09 10:05:25;;;;;;;15.70;7.38;;;;;;;2.87;97.56;100312.56;6217302;23;20251;-61
2021/12/09 10:07:51;;;;;;;15.13;7.22;;;;;;;2.91;97.78;100309.16;6217143;23;20019;-61
2021/12/09 10:10:17;;;;;;;15.18;7.25;;;;;;;3.06;96.82;100309.28;6217272;23;20008;-61
2021/12/09 10:13:02;;;;;;;13.57;7.75;;;;;;;3.18;96.60;100308.50;6217342;23;20398;-61
2021/12/09 10:15:47;;;;;;;14.93;7.22;;;;;;;3.21;96.79;100305.94;6216620;23;20283;-62
2021/12/09 10:18:30;;;;;;;15.50;8.05;;;;;;;3.15;96.92;100299.00;6217327;23;20071;-60
2021/12/09 10:20:56;;;;;;;13.13;8.00;;;;;;;3.22;96.65;100289.59;6215433;23;20182;-62
2021/12/09 10:23:22;;;;;;;16.60;7.63;;;;;;;3.24;96.17;100290.47;6216340;23;20083;-62
2021/12/09 10:26:34;;;;;;;15.60;7.85;;;;;;;3.27;97.11;100290.50;6215207;23;20373;-62
2021/12/09 10:29:17;;;;;;;10.73;7.63;;;;;;;3.39;96.28;100269.88;6214170;23;20355;-62
2021/12/09 10:31:56;;;;;;;18.13;8.18;;;;;;;3.31;96.65;100284.47;6217365;23;20019;-62
2021/12/09 10:34:37;;;;;;;17.65;7.85;;;;;;;3.31;96.32;100275.00;6216780;23;20012;-61
2021/12/09 10:37:11;;;;;;;12.95;7.38;;;;;;;3.33;96.67;100278.47;6216882;23;20445;-61
2021/12/09 10:39:51;;;;;;;13.38;7.68;;;;;;;3.33;97.18;100277.59;6217164;23;20048;-61
2021/12/09 10:42:26;;;;;;;15.82;7.38;;;;;;;3.32;96.18;100275.84;6216701;23;20020;-61
2021/12/09 10:45:08;;;;;;;16.35;7.85;;;;;;;3.37;96.59;100287.09;6216459;23;20410;-61
2021/12/09 10:47:50;;;;;;;17.08;6.88;;;;;;;3.49;95.59;100279.41;6217049;23;20032;-61
2021/12/09 10:50:35;;;;;;;14.05;8.40;;;;;;;3.42;96.69;100290.59;6217058;23;20375;-61
2021/12/09 10:55:49;;;;;;;15.10;7.78;;;;;;;3.43;96.67;100292.34;6227086;23;20066;-61
2021/12/09 10:58:19;;;;;;;14.63;8.50;;;;;;;3.45;97.12;100286.31;6216834;23;20005;-61
2021/12/09 11:00:47;;;;;;;15.18;7.35;;;;;;;3.59;95.55;100286.41;6216882;23;20044;-61
2021/12/09 11:03:20;;;;;;;11.20;7.50;;;;;;;3.57;96.37;100288.09;6216945;23;20356;-61
2021/12/09 11:05:59;;;;;;;14.38;7.78;;;;;;;3.51;97.08;100285.47;6217090;23;20016;-61
2021/12/09 11:08:31;;;;;;;11.35;7.55;;;;;;;3.55;96.92;100289.81;6215873;23;20317;-61
2021/12/09 11:11:10;;;;;;;13.13;7.60;;;;;;;3.72;96.75;100276.97;6217990;23;20083;-61
2021/12/09 11:13:48;;;;;;;18.17;8.07;;;;;;;3.67;95.76;100284.69;6218756;23;20016;-61
2021/12/09 11:16:27;;;;;;;13.45;8.27;;;;;;;3.60;96.26;100275.19;6218381;23;20410;-61
2021/12/09 11:19:12;;;;;;;11.18;8.25;;;;;;;3.67;95.95;100276.94;6218750;23;20080;-61
2021/12/09 11:21:42;;;;;;;15.07;8.13;;;;;;;3.66;95.80;100270.03;6218668;23;20019;-62
2021/12/09 11:24:14;;;;;;;14.70;8.00;;;;;;;3.67;95.73;100264.00;6218502;23;20000;-64
2021/12/09 11:26:56;;;;;;;13.48;7.68;;;;;;;3.66;96.03;100262.28;6219007;23;20064;-61
2021/12/09 11:29:27;;;;;;;11.82;7.78;;;;;;;3.71;96.08;100262.31;6218839;23;20065;-61
2021/12/09 11:32:12;;;;;;;14.40;8.20;;;;;;;3.68;97.00;100263.16;6218737;23;20004;-60